sensor_id;sensor_type;location;lat;lon;timestamp;pressure;altitude;pressure_sealevel;temperature;humidity
9460;BME280;4768;42.664;23.240;2023-02-19T00:00:58;168420.41;;;5.65;100.00
9460;BME280;4768;42.664;23.240;2023-02-19T00:03:26;168566.59;;;6.20;100.00
9460;BME280;4768;42.664;23.240;2023-02-19T00:05:53;168543.97;;;6.11;100.00
9460;BME280;4768;42.664;23.240;2023-02-19T00:08:20;168579.84;;;6.24;100.00
9460;BME280;4768;42.664;23.240;2023-02-19T00:10:46;168543.97;;;6.11;100.00
9460;BME280;4768;42.664;23.240;2023-02-19T00:13:13;168478.91;;;5.87;100.00
9460;BME280;4768;42.664;23.240;2023-02-19T00:15:40;168557.28;;;6.16;100.00
9460;BME280;4768;42.664;23.240;2023-02-19T00:18:06;168409.78;;;5.61;100.00
9460;BME280;4768;42.664;23.240;2023-02-19T00:20:34;168420.41;;;5.65;100.00
9460;BME280;4768;42.664;23.240;2023-02-19T00:23:01;168514.78;;;6.00;100.00
9460;BME280;4768;42.664;23.240;2023-02-19T00:25:28;168532.03;;;6.07;100.00
9460;BME280;4768;42.664;23.240;2023-02-19T00:27:55;168639.69;;;6.47;100.00
9460;BME280;4768;42.664;23.240;2023-02-19T00:30:22;168728.69;;;6.80;100.00
9460;BME280;4768;42.664;23.240;2023-02-19T00:32:49;168837.72;;;7.21;100.00
9460;BME280;4768;42.664;23.240;2023-02-19T00:35:16;168619.75;;;6.39;100.00
9460;BME280;4768;42.664;23.240;2023-02-19T00:37:44;168755.28;;;6.90;100.00
9460;BME280;4768;42.664;23.240;2023-02-19T00:40:11;168599.78;;;6.32;100.00
9460;BME280;4768;42.664;23.240;2023-02-19T00:42:38;168488.19;;;5.90;100.00
9460;BME280;4768;42.664;23.240;2023-02-19T00:45:05;168457.69;;;5.79;100.00
9460;BME280;4768;42.664;23.240;2023-02-19T00:47:32;168411.13;;;5.62;100.00
9460;BME280;4768;42.664;23.240;2023-02-19T00:49:58;168360.66;;;5.43;100.00
9460;BME280;4768;42.664;23.240;2023-02-19T00:52:25;168339.44;;;5.35;100.00
9460;BME280;4768;42.664;23.240;2023-02-19T00:54:53;168355.38;;;5.41;100.00
9460;BME280;4768;42.664;23.240;2023-02-19T00:57:20;168506.81;;;5.97;100.00
9460;BME280;4768;42.664;23.240;2023-02-19T00:59:47;168562.59;;;6.18;100.00
9460;BME280;4768;42.664;23.240;2023-02-19T01:02:13;168514.78;;;6.00;100.00
9460;BME280;4768;42.664;23.240;2023-02-19T01:04:40;168655.63;;;6.53;100.00
9460;BME280;4768;42.664;23.240;2023-02-19T01:07:07;169389.91;;;9.26;100.00
9460;BME280;4768;42.664;23.240;2023-02-19T01:09:33;169655.00;;;10.24;100.00
9460;BME280;4768;42.664;23.240;2023-02-19T01:12:02;169773.63;;;10.68;100.00
9460;BME280;4768;42.664;23.240;2023-02-19T01:14:28;169948.22;;;11.33;100.00
9460;BME280;4768;42.664;23.240;2023-02-19T01:16:55;170010.97;;;11.57;100.00
9460;BME280;4768;42.664;23.240;2023-02-19T01:19:22;170008.28;;;11.56;100.00
9460;BME280;4768;42.664;23.240;2023-02-19T01:21:48;168970.69;;;7.70;100.00
9460;BME280;4768;42.664;23.240;2023-02-19T01:24:15;168910.84;;;7.48;100.00
9460;BME280;4768;42.664;23.240;2023-02-19T01:26:42;169372.63;;;9.19;100.00
9460;BME280;4768;42.664;23.240;2023-02-19T01:29:10;169294.06;;;8.90;100.00
9460;BME280;4768;42.664;23.240;2023-02-19T01:31:38;168787.19;;;7.02;100.00
9460;BME280;4768;42.664;23.240;2023-02-19T01:34:08;168598.47;;;6.31;100.00
9460;BME280;4768;42.664;23.240;2023-02-19T01:36:35;168566.59;;;6.20;100.00
9460;BME280;4768;42.664;23.240;2023-02-19T01:39:04;168532.03;;;6.07;100.00
9460;BME280;4768;42.664;23.240;2023-02-19T01:41:34;168517.44;;;6.01;100.00
9460;BME280;4768;42.664;23.240;2023-02-19T01:44:05;168492.19;;;5.92;100.00
9460;BME280;4768;42.664;23.240;2023-02-19T01:46:35;168469.63;;;5.83;100.00
9460;BME280;4768;42.664;23.240;2023-02-19T01:49:05;168456.31;;;5.78;100.00
9460;BME280;4768;42.664;23.240;2023-02-19T01:51:34;168432.38;;;5.70;100.00
9460;BME280;4768;42.664;23.240;2023-02-19T01:54:04;168429.69;;;5.69;100.00
9460;BME280;4768;42.664;23.240;2023-02-19T01:56:33;168439.03;;;5.72;100.00
9460;BME280;4768;42.664;23.240;2023-02-19T01:59:03;168464.28;;;5.81;100.00
9460;BME280;4768;42.664;23.240;2023-02-19T02:01:31;168788.50;;;7.02;100.00
9460;BME280;4768;42.664;23.240;2023-02-19T02:03:59;169099.78;;;8.18;100.00
9460;BME280;4768;42.664;23.240;2023-02-19T02:06:29;169485.78;;;9.62;100.00
9460;BME280;4768;42.664;23.240;2023-02-19T02:08:57;169640.34;;;10.19;100.00
9460;BME280;4768;42.664;23.240;2023-02-19T02:11:45;169784.25;;;10.72;100.00
9460;BME280;4768;42.664;23.240;2023-02-19T02:14:13;169844.25;;;10.95;100.00
9460;BME280;4768;42.664;23.240;2023-02-19T02:16:47;169882.88;;;11.09;100.00
9460;BME280;4768;42.664;23.240;2023-02-19T02:19:30;169942.88;;;11.31;100.00
9460;BME280;4768;42.664;23.240;2023-02-19T02:22:06;169909.56;;;11.19;100.00
9460;BME280;4768;42.664;23.240;2023-02-19T02:27:46;169898.88;;;11.15;100.00
9460;BME280;4768;42.664;23.240;2023-02-19T02:30:24;169842.91;;;10.94;100.00
9460;BME280;4768;42.664;23.240;2023-02-19T02:32:57;169778.91;;;10.70;100.00
9460;BME280;4768;42.664;23.240;2023-02-19T02:35:28;169801.59;;;10.79;100.00
9460;BME280;4768;42.664;23.240;2023-02-19T02:37:59;169780.25;;;10.71;100.00
9460;BME280;4768;42.664;23.240;2023-02-19T02:40:28;169720.28;;;10.49;100.00
9460;BME280;4768;42.664;23.240;2023-02-19T02:42:56;169728.28;;;10.52;100.00
9460;BME280;4768;42.664;23.240;2023-02-19T02:45:27;169706.97;;;10.44;100.00
9460;BME280;4768;42.664;23.240;2023-02-19T02:48:06;169484.47;;;9.61;100.00
9460;BME280;4768;42.664;23.240;2023-02-19T02:50:37;168843.03;;;7.22;100.00
9460;BME280;4768;42.664;23.240;2023-02-19T02:53:10;168627.72;;;6.42;100.00
9460;BME280;4768;42.664;23.240;2023-02-19T02:55:56;168594.47;;;6.30;100.00
9460;BME280;4768;42.664;23.240;2023-02-19T02:58:26;168611.78;;;6.36;100.00
9460;BME280;4768;42.664;23.240;2023-02-19T03:00:57;168918.81;;;7.51;100.00
9460;BME280;4768;42.664;23.240;2023-02-19T03:03:44;169306.03;;;8.95;100.00
9460;BME280;4768;42.664;23.240;2023-02-19T03:06:15;169528.41;;;9.77;100.00
9460;BME280;4768;42.664;23.240;2023-02-19T03:08:46;169579.09;;;9.96;100.00
9460;BME280;4768;42.664;23.240;2023-02-19T03:11:14;169581.72;;;9.97;100.00
9460;BME280;4768;42.664;23.240;2023-02-19T03:14:03;169605.69;;;10.06;100.00
9460;BME280;4768;42.664;23.240;2023-02-19T03:16:51;169609.69;;;10.08;100.00
9460;BME280;4768;42.664;23.240;2023-02-19T03:19:41;169624.34;;;10.13;100.00
9460;BME280;4768;42.664;23.240;2023-02-19T03:22:13;169619.03;;;10.11;100.00
9460;BME280;4768;42.664;23.240;2023-02-19T03:24:44;169648.34;;;10.22;100.00
9460;BME280;4768;42.664;23.240;2023-02-19T03:27:31;169694.97;;;10.39;100.00
9460;BME280;4768;42.664;23.240;2023-02-19T03:30:06;169700.28;;;10.41;100.00
9460;BME280;4768;42.664;23.240;2023-02-19T03:32:38;169613.69;;;10.09;100.00
9460;BME280;4768;42.664;23.240;2023-02-19T03:35:09;169685.66;;;10.36;100.00
9460;BME280;4768;42.664;23.240;2023-02-19T03:37:40;169752.25;;;10.60;100.00
9460;BME280;4768;42.664;23.240;2023-02-19T03:40:10;169804.28;;;10.80;100.00
9460;BME280;4768;42.664;23.240;2023-02-19T03:42:42;169750.94;;;10.60;100.00
9460;BME280;4768;42.664;23.240;2023-02-19T03:45:31;169749.63;;;10.60;100.00
9460;BME280;4768;42.664;23.240;2023-02-19T03:48:16;169753.63;;;10.61;100.00
9460;BME280;4768;42.664;23.240;2023-02-19T03:50:46;169729.63;;;10.52;100.00
9460;BME280;4768;42.664;23.240;2023-02-19T03:53:25;169720.28;;;10.49;100.00
9460;BME280;4768;42.664;23.240;2023-02-19T03:56:02;169732.28;;;10.53;100.00
9460;BME280;4768;42.664;23.240;2023-02-19T03:58:33;169708.28;;;10.44;100.00
9460;BME280;4768;42.664;23.240;2023-02-19T04:01:05;169801.59;;;10.79;100.00
9460;BME280;4768;42.664;23.240;2023-02-19T04:03:36;169770.94;;;10.67;100.00
9460;BME280;4768;42.664;23.240;2023-02-19T04:06:08;169734.94;;;10.54;100.00
9460;BME280;4768;42.664;23.240;2023-02-19T04:08:37;169754.94;;;10.61;100.00
9460;BME280;4768;42.664;23.240;2023-02-19T04:11:07;169749.63;;;10.60;100.00
9460;BME280;4768;42.664;23.240;2023-02-19T04:13:39;169750.94;;;10.60;100.00
9460;BME280;4768;42.664;23.240;2023-02-19T04:16:12;169744.25;;;10.58;100.00
9460;BME280;4768;42.664;23.240;2023-02-19T04:18:43;169725.63;;;10.51;100.00
9460;BME280;4768;42.664;23.240;2023-02-19T04:21:13;169709.66;;;10.45;100.00
9460;BME280;4768;42.664;23.240;2023-02-19T04:23:42;169676.31;;;10.32;100.00
9460;BME280;4768;42.664;23.240;2023-02-19T04:26:11;169616.38;;;10.10;100.00
9460;BME280;4768;42.664;23.240;2023-02-19T04:28:40;169688.31;;;10.37;100.00
9460;BME280;4768;42.664;23.240;2023-02-19T04:31:08;169688.31;;;10.37;100.00
9460;BME280;4768;42.664;23.240;2023-02-19T04:33:35;169680.31;;;10.34;100.00
9460;BME280;4768;42.664;23.240;2023-02-19T04:36:04;169655.00;;;10.24;100.00
9460;BME280;4768;42.664;23.240;2023-02-19T04:38:32;169728.28;;;10.52;100.00
9460;BME280;4768;42.664;23.240;2023-02-19T04:40:59;169754.94;;;10.61;100.00
9460;BME280;4768;42.664;23.240;2023-02-19T04:43:25;169873.56;;;11.06;100.00
9460;BME280;4768;42.664;23.240;2023-02-19T04:45:52;169878.88;;;11.07;100.00
9460;BME280;4768;42.664;23.240;2023-02-19T04:48:19;169922.88;;;11.24;100.00
9460;BME280;4768;42.664;23.240;2023-02-19T04:50:45;169852.25;;;10.98;100.00
9460;BME280;4768;42.664;23.240;2023-02-19T04:53:13;169846.88;;;10.96;100.00
9460;BME280;4768;42.664;23.240;2023-02-19T04:55:40;169809.59;;;10.82;100.00
9460;BME280;4768;42.664;23.240;2023-02-19T04:58:07;169797.59;;;10.77;100.00
9460;BME280;4768;42.664;23.240;2023-02-19T05:00:33;169820.28;;;10.86;100.00
9460;BME280;4768;42.664;23.240;2023-02-19T05:03:00;169828.28;;;10.89;100.00
9460;BME280;4768;42.664;23.240;2023-02-19T05:05:27;169809.59;;;10.82;100.00
9460;BME280;4768;42.664;23.240;2023-02-19T05:07:54;169766.94;;;10.66;100.00
9460;BME280;4768;42.664;23.240;2023-02-19T05:10:22;169789.59;;;10.74;100.00
9460;BME280;4768;42.664;23.240;2023-02-19T05:12:49;169776.25;;;10.69;100.00
9460;BME280;4768;42.664;23.240;2023-02-19T05:15:16;169729.63;;;10.52;100.00
9460;BME280;4768;42.664;23.240;2023-02-19T05:17:43;169706.97;;;10.44;100.00
9460;BME280;4768;42.664;23.240;2023-02-19T05:20:10;169690.97;;;10.38;100.00
9460;BME280;4768;42.664;23.240;2023-02-19T05:22:36;169706.97;;;10.44;100.00
9460;BME280;4768;42.664;23.240;2023-02-19T05:25:04;169716.28;;;10.47;100.00
9460;BME280;4768;42.664;23.240;2023-02-19T05:27:32;169725.63;;;10.51;100.00
9460;BME280;4768;42.664;23.240;2023-02-19T05:29:59;169700.28;;;10.41;100.00
9460;BME280;4768;42.664;23.240;2023-02-19T05:32:25;169702.97;;;10.42;100.00
9460;BME280;4768;42.664;23.240;2023-02-19T05:34:52;169710.97;;;10.45;100.00
9460;BME280;4768;42.664;23.240;2023-02-19T05:37:19;169681.66;;;10.34;100.00
9460;BME280;4768;42.664;23.240;2023-02-19T05:39:47;169700.28;;;10.41;100.00
9460;BME280;4768;42.664;23.240;2023-02-19T05:42:14;169721.66;;;10.49;100.00
9460;BME280;4768;42.664;23.240;2023-02-19T05:44:42;169687.00;;;10.36;100.00
9460;BME280;4768;42.664;23.240;2023-02-19T05:47:08;169681.66;;;10.34;100.00
9460;BME280;4768;42.664;23.240;2023-02-19T05:49:35;169704.28;;;10.43;100.00
9460;BME280;4768;42.664;23.240;2023-02-19T05:52:02;169709.66;;;10.45;100.00
9460;BME280;4768;42.664;23.240;2023-02-19T05:54:30;169741.63;;;10.57;100.00
9460;BME280;4768;42.664;23.240;2023-02-19T05:56:56;169760.25;;;10.63;100.00
9460;BME280;4768;42.664;23.240;2023-02-19T05:59:25;169782.94;;;10.72;100.00
9460;BME280;4768;42.664;23.240;2023-02-19T06:01:53;169793.59;;;10.76;100.00
9460;BME280;4768;42.664;23.240;2023-02-19T06:04:21;169818.91;;;10.85;100.00
9460;BME280;4768;42.664;23.240;2023-02-19T06:06:48;169844.25;;;10.95;100.00
9460;BME280;4768;42.664;23.240;2023-02-19T06:09:14;169824.28;;;10.87;100.00
9460;BME280;4768;42.664;23.240;2023-02-19T06:11:41;169796.28;;;10.77;100.00
9460;BME280;4768;42.664;23.240;2023-02-19T06:14:10;169818.91;;;10.85;100.00
9460;BME280;4768;42.664;23.240;2023-02-19T06:16:37;169821.59;;;10.86;100.00
9460;BME280;4768;42.664;23.240;2023-02-19T06:19:05;169825.59;;;10.88;100.00
9460;BME280;4768;42.664;23.240;2023-02-19T06:21:32;169828.28;;;10.89;100.00
9460;BME280;4768;42.664;23.240;2023-02-19T06:24:03;169814.91;;;10.84;100.00
9460;BME280;4768;42.664;23.240;2023-02-19T06:26:30;169820.28;;;10.86;100.00
9460;BME280;4768;42.664;23.240;2023-02-19T06:28:57;169821.59;;;10.86;100.00
9460;BME280;4768;42.664;23.240;2023-02-19T06:31:24;169805.59;;;10.80;100.00
9460;BME280;4768;42.664;23.240;2023-02-19T06:33:50;169796.28;;;10.77;100.00
9460;BME280;4768;42.664;23.240;2023-02-19T06:36:19;169820.28;;;10.86;100.00
9460;BME280;4768;42.664;23.240;2023-02-19T06:38:46;169849.56;;;10.97;100.00
9460;BME280;4768;42.664;23.240;2023-02-19T06:41:14;169865.56;;;11.03;100.00
9460;BME280;4768;42.664;23.240;2023-02-19T06:43:41;169864.25;;;11.02;100.00
9460;BME280;4768;42.664;23.240;2023-02-19T06:46:09;169869.56;;;11.04;100.00
9460;BME280;4768;42.664;23.240;2023-02-19T06:48:38;169889.56;;;11.11;100.00
9460;BME280;4768;42.664;23.240;2023-02-19T06:51:05;169912.25;;;11.20;100.00
9460;BME280;4768;42.664;23.240;2023-02-19T06:53:33;169970.91;;;11.42;100.00
9460;BME280;4768;42.664;23.240;2023-02-19T06:56:01;170045.59;;;11.69;100.00
9460;BME280;4768;42.664;23.240;2023-02-19T06:58:29;169992.28;;;11.50;100.00
9460;BME280;4768;42.664;23.240;2023-02-19T07:00:56;170025.59;;;11.62;100.00
9460;BME280;4768;42.664;23.240;2023-02-19T07:03:23;170028.28;;;11.63;100.00
9460;BME280;4768;42.664;23.240;2023-02-19T07:05:50;170028.28;;;11.63;100.00
9460;BME280;4768;42.664;23.240;2023-02-19T07:08:17;170088.28;;;11.85;100.00
9460;BME280;4768;42.664;23.240;2023-02-19T07:10:53;170175.00;;;12.17;100.00
9460;BME280;4768;42.664;23.240;2023-02-19T07:13:19;170132.31;;;12.02;100.00
9460;BME280;4768;42.664;23.240;2023-02-19T07:15:46;170155.00;;;12.10;100.00
9460;BME280;4768;42.664;23.240;2023-02-19T07:18:13;170264.38;;;12.51;100.00
9460;BME280;4768;42.664;23.240;2023-02-19T07:20:39;170319.09;;;12.71;100.00
9460;BME280;4768;42.664;23.240;2023-02-19T07:23:06;170379.19;;;12.93;100.00
9460;BME280;4768;42.664;23.240;2023-02-19T07:25:33;170409.91;;;13.04;100.00
9460;BME280;4768;42.664;23.240;2023-02-19T07:28:01;170443.25;;;13.17;100.00
9460;BME280;4768;42.664;23.240;2023-02-19T07:30:28;170515.41;;;13.44;100.00
9460;BME280;4768;42.664;23.240;2023-02-19T07:32:54;170599.50;;;13.75;100.00
9460;BME280;4768;42.664;23.240;2023-02-19T07:35:21;170514.03;;;13.43;100.00
9460;BME280;4768;42.664;23.240;2023-02-19T07:37:48;170548.75;;;13.56;100.00
9460;BME280;4768;42.664;23.240;2023-02-19T07:40:15;170582.13;;;13.68;98.51
9460;BME280;4768;42.664;23.240;2023-02-19T07:42:41;170555.44;;;13.58;97.26
9460;BME280;4768;42.664;23.240;2023-02-19T07:45:10;170580.81;;;13.68;98.26
9460;BME280;4768;42.664;23.240;2023-02-19T07:47:36;170662.28;;;13.98;97.09
9460;BME280;4768;42.664;23.240;2023-02-19T07:50:03;170717.06;;;14.18;95.48
9460;BME280;4768;42.664;23.240;2023-02-19T07:52:32;170596.81;;;13.74;92.67
9460;BME280;4768;42.664;23.240;2023-02-19T07:54:59;170638.19;;;13.89;93.93
9460;BME280;4768;42.664;23.240;2023-02-19T07:57:26;170765.16;;;14.36;93.23
9460;BME280;4768;42.664;23.240;2023-02-19T07:59:53;170759.81;;;14.34;88.80
9460;BME280;4768;42.664;23.240;2023-02-19T08:02:21;170560.78;;;13.60;93.97
9460;BME280;4768;42.664;23.240;2023-02-19T08:05:06;170475.28;;;13.29;94.38
9460;BME280;4768;42.664;23.240;2023-02-19T08:07:34;170718.44;;;14.19;92.67
9460;BME280;4768;42.664;23.240;2023-02-19T08:10:02;170837.34;;;14.63;92.35
9460;BME280;4768;42.664;23.240;2023-02-19T08:12:54;170733.09;;;14.24;89.89
9460;BME280;4768;42.664;23.240;2023-02-19T08:15:38;170853.38;;;14.69;90.14
9460;BME280;4768;42.664;23.240;2023-02-19T08:18:06;170739.78;;;14.27;87.95
9460;BME280;4768;42.664;23.240;2023-02-19T08:20:33;170646.22;;;13.92;90.97
9460;BME280;4768;42.664;23.240;2023-02-19T08:23:00;170615.53;;;13.81;92.53
9460;BME280;4768;42.664;23.240;2023-02-19T08:25:27;170687.69;;;14.07;91.34
9460;BME280;4768;42.664;23.240;2023-02-19T08:27:54;170779.88;;;14.42;88.85
9460;BME280;4768;42.664;23.240;2023-02-19T08:30:21;170862.72;;;14.72;88.85
9460;BME280;4768;42.664;23.240;2023-02-19T08:32:48;170842.69;;;14.65;87.38
9460;BME280;4768;42.664;23.240;2023-02-19T08:35:16;170906.81;;;14.89;87.09
9460;BME280;4768;42.664;23.240;2023-02-19T08:37:43;170844.00;;;14.65;86.00
9460;BME280;4768;42.664;23.240;2023-02-19T08:40:10;170805.22;;;14.51;87.33
9460;BME280;4768;42.664;23.240;2023-02-19T08:42:37;170765.16;;;14.36;88.39
9460;BME280;4768;42.664;23.240;2023-02-19T08:45:04;170719.75;;;14.19;87.31
9460;BME280;4768;42.664;23.240;2023-02-19T08:47:33;170753.13;;;14.32;88.33
9460;BME280;4768;42.664;23.240;2023-02-19T08:50:01;170795.91;;;14.48;90.75
9460;BME280;4768;42.664;23.240;2023-02-19T08:52:31;170749.13;;;14.30;93.27
9460;BME280;4768;42.664;23.240;2023-02-19T08:54:58;170814.63;;;14.54;94.71
9460;BME280;4768;42.664;23.240;2023-02-19T08:57:25;170807.91;;;14.52;94.86
9460;BME280;4768;42.664;23.240;2023-02-19T08:59:53;170842.69;;;14.65;91.44
9460;BME280;4768;42.664;23.240;2023-02-19T09:02:20;170670.31;;;14.01;92.77
9460;BME280;4768;42.664;23.240;2023-02-19T09:04:47;170622.19;;;13.83;96.26
9460;BME280;4768;42.664;23.240;2023-02-19T09:07:14;170759.81;;;14.34;97.93
9460;BME280;4768;42.664;23.240;2023-02-19T09:09:42;170782.56;;;14.43;95.11
9460;BME280;4768;42.664;23.240;2023-02-19T09:12:10;170823.94;;;14.58;96.92
9460;BME280;4768;42.664;23.240;2023-02-19T09:14:37;170868.03;;;14.74;94.84
9460;BME280;4768;42.664;23.240;2023-02-19T09:17:05;170850.69;;;14.68;96.56
9460;BME280;4768;42.664;23.240;2023-02-19T09:19:32;170922.84;;;14.95;96.25
9460;BME280;4768;42.664;23.240;2023-02-19T09:21:59;170876.06;;;14.77;94.33
9460;BME280;4768;42.664;23.240;2023-02-19T09:24:26;170918.84;;;14.93;96.24
9460;BME280;4768;42.664;23.240;2023-02-19T09:26:54;170893.47;;;14.84;95.84
9460;BME280;4768;42.664;23.240;2023-02-19T09:29:23;170754.50;;;14.32;99.52
9460;BME280;4768;42.664;23.240;2023-02-19T09:31:50;170858.72;;;14.71;98.19
9460;BME280;4768;42.664;23.240;2023-02-19T09:34:20;170791.88;;;14.46;94.32
9460;BME280;4768;42.664;23.240;2023-02-19T09:36:47;170758.50;;;14.34;93.56
9460;BME280;4768;42.664;23.240;2023-02-19T09:39:14;170779.88;;;14.42;94.08
9460;BME280;4768;42.664;23.240;2023-02-19T09:41:43;170798.59;;;14.49;90.20
9460;BME280;4768;42.664;23.240;2023-02-19T09:44:22;170894.78;;;14.84;93.28
9460;BME280;4768;42.664;23.240;2023-02-19T09:46:51;171009.78;;;15.27;89.92
9460;BME280;4768;42.664;23.240;2023-02-19T09:49:22;171088.66;;;15.56;88.87
9460;BME280;4768;42.664;23.240;2023-02-19T09:51:52;171111.34;;;15.64;88.21
9460;BME280;4768;42.664;23.240;2023-02-19T09:54:22;171091.31;;;15.57;87.33
9460;BME280;4768;42.664;23.240;2023-02-19T09:56:50;170968.25;;;15.11;85.71
9460;BME280;4768;42.664;23.240;2023-02-19T09:59:22;170992.44;;;15.20;89.28
9460;BME280;4768;42.664;23.240;2023-02-19T10:01:54;171091.31;;;15.57;87.35
9460;BME280;4768;42.664;23.240;2023-02-19T10:04:22;171096.69;;;15.59;87.58
9460;BME280;4768;42.664;23.240;2023-02-19T10:06:50;171031.16;;;15.35;84.28
9460;BME280;4768;42.664;23.240;2023-02-19T10:09:20;171017.78;;;15.30;85.05
9460;BME280;4768;42.664;23.240;2023-02-19T10:11:48;170982.97;;;15.17;84.92
9460;BME280;4768;42.664;23.240;2023-02-19T10:14:20;170918.84;;;14.93;86.09
9460;BME280;4768;42.664;23.240;2023-02-19T10:16:50;171096.69;;;15.59;84.87
9460;BME280;4768;42.664;23.240;2023-02-19T10:19:18;171068.59;;;15.48;82.57
9460;BME280;4768;42.664;23.240;2023-02-19T10:21:45;170902.78;;;14.87;86.50
9460;BME280;4768;42.664;23.240;2023-02-19T10:24:16;171152.84;;;15.80;84.43
9460;BME280;4768;42.664;23.240;2023-02-19T10:26:46;171198.28;;;15.96;83.81
9460;BME280;4768;42.664;23.240;2023-02-19T10:29:13;171139.44;;;15.75;81.66
9460;BME280;4768;42.664;23.240;2023-02-19T10:31:41;171206.28;;;15.99;82.50
9460;BME280;4768;42.664;23.240;2023-02-19T10:34:16;171170.19;;;15.86;82.04
9460;BME280;4768;42.664;23.240;2023-02-19T10:36:47;171194.28;;;15.95;80.94
9460;BME280;4768;42.664;23.240;2023-02-19T10:39:37;171144.81;;;15.77;79.73
9460;BME280;4768;42.664;23.240;2023-02-19T10:42:13;171237.06;;;16.11;83.68
9460;BME280;4768;42.664;23.240;2023-02-19T10:44:43;170989.72;;;15.19;82.17
9460;BME280;4768;42.664;23.240;2023-02-19T10:47:17;171146.13;;;15.77;84.08
9460;BME280;4768;42.664;23.240;2023-02-19T10:49:45;171245.09;;;16.14;79.37
9460;BME280;4768;42.664;23.240;2023-02-19T10:52:16;171144.81;;;15.77;79.67
9460;BME280;4768;42.664;23.240;2023-02-19T10:54:49;171200.97;;;15.97;82.78
9460;BME280;4768;42.664;23.240;2023-02-19T10:57:25;171100.69;;;15.60;80.79
9460;BME280;4768;42.664;23.240;2023-02-19T10:59:58;171223.72;;;16.06;79.90
9460;BME280;4768;42.664;23.240;2023-02-19T11:02:28;171155.47;;;15.81;78.58
9460;BME280;4768;42.664;23.240;2023-02-19T11:05:05;171069.94;;;15.49;78.47
9460;BME280;4768;42.664;23.240;2023-02-19T11:07:33;171207.66;;;16.00;80.22
9460;BME280;4768;42.664;23.240;2023-02-19T11:10:02;171336.13;;;16.47;78.20
9460;BME280;4768;42.664;23.240;2023-02-19T11:12:31;171384.25;;;16.65;75.99
9460;BME280;4768;42.664;23.240;2023-02-19T11:15:02;171425.72;;;16.81;75.24
9460;BME280;4768;42.664;23.240;2023-02-19T11:17:40;171400.31;;;16.71;74.01
9460;BME280;4768;42.664;23.240;2023-02-19T11:20:14;171431.09;;;16.83;74.30
9460;BME280;4768;42.664;23.240;2023-02-19T11:22:42;171372.22;;;16.61;73.65
9460;BME280;4768;42.664;23.240;2023-02-19T11:25:18;171336.13;;;16.47;74.17
9460;BME280;4768;42.664;23.240;2023-02-19T11:27:56;171388.28;;;16.67;74.89
9460;BME280;4768;42.664;23.240;2023-02-19T11:30:42;171432.44;;;16.83;74.08
9460;BME280;4768;42.664;23.240;2023-02-19T11:33:24;171429.72;;;16.82;70.24
9460;BME280;4768;42.664;23.240;2023-02-19T11:35:57;171427.09;;;16.81;70.18
9460;BME280;4768;42.664;23.240;2023-02-19T11:38:25;171508.69;;;17.11;71.43
9460;BME280;4768;42.664;23.240;2023-02-19T11:40:58;171515.41;;;17.14;67.90
9460;BME280;4768;42.664;23.240;2023-02-19T11:43:47;171629.19;;;17.56;67.97
9460;BME280;4768;42.664;23.240;2023-02-19T11:46:24;171492.63;;;17.05;64.18
9460;BME280;4768;42.664;23.240;2023-02-19T11:49:10;171475.25;;;16.99;63.98
9460;BME280;4768;42.664;23.240;2023-02-19T11:54:48;171503.34;;;17.09;63.78
9460;BME280;4768;42.664;23.240;2023-02-19T11:57:34;171575.69;;;17.36;63.99
9460;BME280;4768;42.664;23.240;2023-02-19T12:00:20;171534.22;;;17.21;62.27
9460;BME280;4768;42.664;23.240;2023-02-19T12:03:16;171629.19;;;17.56;61.05
9460;BME280;4768;42.664;23.240;2023-02-19T12:05:59;171523.44;;;17.17;61.91
9460;BME280;4768;42.664;23.240;2023-02-19T12:08:45;171567.63;;;17.33;61.47
9460;BME280;4768;42.664;23.240;2023-02-19T12:11:53;171622.53;;;17.53;59.74
9460;BME280;4768;42.664;23.240;2023-02-19T12:14:49;171672.03;;;17.72;58.64
9460;BME280;4768;42.664;23.240;2023-02-19T12:17:46;171654.66;;;17.65;58.70
9460;BME280;4768;42.664;23.240;2023-02-19T12:20:23;171670.72;;;17.71;58.41
9460;BME280;4768;42.664;23.240;2023-02-19T12:23:06;171653.28;;;17.65;58.74
9460;BME280;4768;42.664;23.240;2023-02-19T12:25:46;171611.81;;;17.49;58.65
9460;BME280;4768;42.664;23.240;2023-02-19T12:28:30;171682.75;;;17.76;57.52
9460;BME280;4768;42.664;23.240;2023-02-19T12:31:13;171540.84;;;17.23;57.57
9460;BME280;4768;42.664;23.240;2023-02-19T12:34:00;171555.59;;;17.29;58.93
9460;BME280;4768;42.664;23.240;2023-02-19T12:36:37;171603.78;;;17.46;59.20
9460;BME280;4768;42.664;23.240;2023-02-19T12:39:15;171623.84;;;17.54;57.45
9460;BME280;4768;42.664;23.240;2023-02-19T12:41:49;171583.69;;;17.39;58.40
9460;BME280;4768;42.664;23.240;2023-02-19T12:44:26;171674.72;;;17.73;58.13
9460;BME280;4768;42.664;23.240;2023-02-19T12:46:59;171560.94;;;17.31;57.13
9460;BME280;4768;42.664;23.240;2023-02-19T12:49:30;171582.38;;;17.39;56.86
9460;BME280;4768;42.664;23.240;2023-02-19T12:52:00;171519.41;;;17.15;57.65
9460;BME280;4768;42.664;23.240;2023-02-19T12:54:33;171614.50;;;17.50;56.14
9460;BME280;4768;42.664;23.240;2023-02-19T12:57:03;171654.66;;;17.65;56.91
9460;BME280;4768;42.664;23.240;2023-02-19T12:59:35;171657.31;;;17.66;55.46
9460;BME280;4768;42.664;23.240;2023-02-19T13:02:11;171658.66;;;17.67;56.57
9460;BME280;4768;42.664;23.240;2023-02-19T13:04:44;171666.69;;;17.70;55.73
9460;BME280;4768;42.664;23.240;2023-02-19T13:07:15;171630.56;;;17.56;55.79
9460;BME280;4768;42.664;23.240;2023-02-19T13:09:47;171623.84;;;17.54;56.37
9460;BME280;4768;42.664;23.240;2023-02-19T13:12:20;171653.28;;;17.65;56.03
9460;BME280;4768;42.664;23.240;2023-02-19T13:14:51;171613.13;;;17.50;56.28
9460;BME280;4768;42.664;23.240;2023-02-19T13:17:23;171647.94;;;17.63;55.97
9460;BME280;4768;42.664;23.240;2023-02-19T13:19:56;171647.94;;;17.63;56.73